sensor_id;sensor_type;location;lat;lon;timestamp;temperature;humidity
25046;DHT22;13044;49.304;12.840;2022-08-01T00:00:13;20.30;99.90
25046;DHT22;13044;49.304;12.840;2022-08-01T00:02:40;20.10;99.90
25046;DHT22;13044;49.304;12.840;2022-08-01T00:05:08;20.10;99.90
25046;DHT22;13044;49.304;12.840;2022-08-01T00:07:37;20.00;99.90
25046;DHT22;13044;49.304;12.840;2022-08-01T00:10:06;20.00;99.90
25046;DHT22;13044;49.304;12.840;2022-08-01T00:12:35;20.00;99.90
25046;DHT22;13044;49.304;12.840;2022-08-01T00:15:03;19.90;99.90
25046;DHT22;13044;49.304;12.840;2022-08-01T00:17:32;19.80;99.90
25046;DHT22;13044;49.304;12.840;2022-08-01T00:19:59;19.80;99.90
25046;DHT22;13044;49.304;12.840;2022-08-01T00:22:26;19.70;99.90
25046;DHT22;13044;49.304;12.840;2022-08-01T00:24:53;19.60;99.90
25046;DHT22;13044;49.304;12.840;2022-08-01T00:27:20;19.60;99.90
25046;DHT22;13044;49.304;12.840;2022-08-01T00:29:47;19.60;99.90
25046;DHT22;13044;49.304;12.840;2022-08-01T00:32:34;19.60;99.90
25046;DHT22;13044;49.304;12.840;2022-08-01T00:35:01;19.60;99.90
25046;DHT22;13044;49.304;12.840;2022-08-01T00:37:27;19.50;99.90
25046;DHT22;13044;49.304;12.840;2022-08-01T00:39:54;19.50;99.90
25046;DHT22;13044;49.304;12.840;2022-08-01T00:42:21;19.40;99.90
25046;DHT22;13044;49.304;12.840;2022-08-01T00:44:48;19.30;99.90
25046;DHT22;13044;49.304;12.840;2022-08-01T00:47:15;19.30;99.90
25046;DHT22;13044;49.304;12.840;2022-08-01T00:49:42;19.10;99.90
25046;DHT22;13044;49.304;12.840;2022-08-01T00:52:09;19.10;99.90
25046;DHT22;13044;49.304;12.840;2022-08-01T00:54:36;19.10;99.90
25046;DHT22;13044;49.304;12.840;2022-08-01T00:57:03;18.90;99.90
25046;DHT22;13044;49.304;12.840;2022-08-01T00:59:36;18.90;99.90
25046;DHT22;13044;49.304;12.840;2022-08-01T01:02:06;18.80;99.90
25046;DHT22;13044;49.304;12.840;2022-08-01T01:04:41;18.80;99.90
25046;DHT22;13044;49.304;12.840;2022-08-01T01:07:19;18.70;99.90
25046;DHT22;13044;49.304;12.840;2022-08-01T01:10:02;18.70;99.90
25046;DHT22;13044;49.304;12.840;2022-08-01T01:13:38;18.80;99.90
25046;DHT22;13044;49.304;12.840;2022-08-01T01:15:49;18.90;99.90
25046;DHT22;13044;49.304;12.840;2022-08-01T01:18:26;19.10;99.90
25046;DHT22;13044;49.304;12.840;2022-08-01T01:21:00;19.10;99.90
25046;DHT22;13044;49.304;12.840;2022-08-01T01:26:57;19.00;99.90
25046;DHT22;13044;49.304;12.840;2022-08-01T01:29:33;18.90;99.90
25046;DHT22;13044;49.304;12.840;2022-08-01T01:32:32;18.70;99.90
25046;DHT22;13044;49.304;12.840;2022-08-01T01:35:25;18.60;99.90
25046;DHT22;13044;49.304;12.840;2022-08-01T01:38:17;18.50;99.90
25046;DHT22;13044;49.304;12.840;2022-08-01T01:40:47;18.40;99.90
25046;DHT22;13044;49.304;12.840;2022-08-01T01:43:16;18.40;99.90
25046;DHT22;13044;49.304;12.840;2022-08-01T01:45:46;18.40;99.90
25046;DHT22;13044;49.304;12.840;2022-08-01T01:48:18;18.50;99.90
25046;DHT22;13044;49.304;12.840;2022-08-01T01:50:47;18.60;99.90
25046;DHT22;13044;49.304;12.840;2022-08-01T01:53:17;18.60;99.90
25046;DHT22;13044;49.304;12.840;2022-08-01T01:55:48;18.60;99.90
25046;DHT22;13044;49.304;12.840;2022-08-01T01:58:17;18.60;99.90
25046;DHT22;13044;49.304;12.840;2022-08-01T02:00:47;18.70;99.90
25046;DHT22;13044;49.304;12.840;2022-08-01T02:03:17;18.70;99.90
25046;DHT22;13044;49.304;12.840;2022-08-01T02:05:46;18.70;99.90
25046;DHT22;13044;49.304;12.840;2022-08-01T02:08:17;18.70;99.90
25046;DHT22;13044;49.304;12.840;2022-08-01T02:10:45;18.70;99.90
25046;DHT22;13044;49.304;12.840;2022-08-01T02:13:34;18.70;99.90
25046;DHT22;13044;49.304;12.840;2022-08-01T02:16:03;18.80;99.90
25046;DHT22;13044;49.304;12.840;2022-08-01T02:18:32;18.80;99.90
25046;DHT22;13044;49.304;12.840;2022-08-01T02:21:01;18.80;99.90
25046;DHT22;13044;49.304;12.840;2022-08-01T02:23:36;18.80;99.90
25046;DHT22;13044;49.304;12.840;2022-08-01T02:26:07;18.80;99.90
25046;DHT22;13044;49.304;12.840;2022-08-01T02:28:49;18.80;99.90
25046;DHT22;13044;49.304;12.840;2022-08-01T02:31:21;18.80;99.90
25046;DHT22;13044;49.304;12.840;2022-08-01T02:33:57;18.80;99.90
25046;DHT22;13044;49.304;12.840;2022-08-01T02:36:28;18.80;99.90
25046;DHT22;13044;49.304;12.840;2022-08-01T02:39:01;18.80;99.90
25046;DHT22;13044;49.304;12.840;2022-08-01T02:41:30;18.70;99.90
25046;DHT22;13044;49.304;12.840;2022-08-01T02:44:05;18.70;99.90
25046;DHT22;13044;49.304;12.840;2022-08-01T02:46:37;18.60;99.90
25046;DHT22;13044;49.304;12.840;2022-08-01T02:49:07;18.60;99.90
25046;DHT22;13044;49.304;12.840;2022-08-01T02:51:36;18.60;99.90
25046;DHT22;13044;49.304;12.840;2022-08-01T02:54:08;18.70;99.90
25046;DHT22;13044;49.304;12.840;2022-08-01T02:56:36;18.70;99.90
25046;DHT22;13044;49.304;12.840;2022-08-01T02:59:06;18.70;99.90
25046;DHT22;13044;49.304;12.840;2022-08-01T03:01:35;18.70;99.90
25046;DHT22;13044;49.304;12.840;2022-08-01T03:04:07;18.70;99.90
25046;DHT22;13044;49.304;12.840;2022-08-01T03:06:35;18.70;99.90
25046;DHT22;13044;49.304;12.840;2022-08-01T03:09:04;18.70;99.90
25046;DHT22;13044;49.304;12.840;2022-08-01T03:11:33;18.70;99.90
25046;DHT22;13044;49.304;12.840;2022-08-01T03:14:04;18.70;99.90
25046;DHT22;13044;49.304;12.840;2022-08-01T03:16:33;18.70;99.90
25046;DHT22;13044;49.304;12.840;2022-08-01T03:19:03;18.70;99.90
25046;DHT22;13044;49.304;12.840;2022-08-01T03:21:31;18.70;99.90
25046;DHT22;13044;49.304;12.840;2022-08-01T03:24:01;18.80;99.90
25046;DHT22;13044;49.304;12.840;2022-08-01T03:26:33;18.80;99.90
25046;DHT22;13044;49.304;12.840;2022-08-01T03:29:17;18.80;99.90
25046;DHT22;13044;49.304;12.840;2022-08-01T03:31:48;18.80;99.90
25046;DHT22;13044;49.304;12.840;2022-08-01T03:34:16;18.70;99.90
25046;DHT22;13044;49.304;12.840;2022-08-01T03:36:59;18.70;99.90
25046;DHT22;13044;49.304;12.840;2022-08-01T03:39:33;18.70;99.90
25046;DHT22;13044;49.304;12.840;2022-08-01T03:42:08;18.60;99.90
25046;DHT22;13044;49.304;12.840;2022-08-01T03:44:40;18.60;99.90
25046;DHT22;13044;49.304;12.840;2022-08-01T03:47:09;18.60;99.90
25046;DHT22;13044;49.304;12.840;2022-08-01T03:49:41;18.60;99.90
25046;DHT22;13044;49.304;12.840;2022-08-01T03:52:09;18.60;99.90
25046;DHT22;13044;49.304;12.840;2022-08-01T03:54:43;18.60;99.90
25046;DHT22;13044;49.304;12.840;2022-08-01T03:57:14;18.50;99.90
25046;DHT22;13044;49.304;12.840;2022-08-01T04:00:04;18.50;99.90
25046;DHT22;13044;49.304;12.840;2022-08-01T04:02:36;18.50;99.90
25046;DHT22;13044;49.304;12.840;2022-08-01T04:05:04;18.50;99.90
25046;DHT22;13044;49.304;12.840;2022-08-01T04:07:33;18.40;99.90
25046;DHT22;13044;49.304;12.840;2022-08-01T04:10:06;18.40;99.90
25046;DHT22;13044;49.304;12.840;2022-08-01T04:12:34;18.40;99.90
25046;DHT22;13044;49.304;12.840;2022-08-01T04:15:01;18.40;99.90
25046;DHT22;13044;49.304;12.840;2022-08-01T04:17:28;18.40;99.90
25046;DHT22;13044;49.304;12.840;2022-08-01T04:19:55;18.40;99.90
25046;DHT22;13044;49.304;12.840;2022-08-01T04:22:22;18.30;99.90
25046;DHT22;13044;49.304;12.840;2022-08-01T04:24:52;18.30;99.90
25046;DHT22;13044;49.304;12.840;2022-08-01T04:27:27;18.30;99.90
25046;DHT22;13044;49.304;12.840;2022-08-01T04:30:19;18.30;99.90
25046;DHT22;13044;49.304;12.840;2022-08-01T04:32:48;18.40;99.90
25046;DHT22;13044;49.304;12.840;2022-08-01T04:35:18;18.40;99.90
25046;DHT22;13044;49.304;12.840;2022-08-01T04:38:08;18.40;99.90
25046;DHT22;13044;49.304;12.840;2022-08-01T04:40:36;18.50;99.90
25046;DHT22;13044;49.304;12.840;2022-08-01T04:43:04;18.40;99.90
25046;DHT22;13044;49.304;12.840;2022-08-01T04:45:33;18.30;99.90
25046;DHT22;13044;49.304;12.840;2022-08-01T04:48:01;18.40;99.90
25046;DHT22;13044;49.304;12.840;2022-08-01T04:50:28;18.40;99.90
25046;DHT22;13044;49.304;12.840;2022-08-01T04:52:55;18.40;99.90
25046;DHT22;13044;49.304;12.840;2022-08-01T04:55:22;18.40;99.90
25046;DHT22;13044;49.304;12.840;2022-08-01T04:57:49;18.40;99.90
25046;DHT22;13044;49.304;12.840;2022-08-01T05:00:16;18.40;99.90
25046;DHT22;13044;49.304;12.840;2022-08-01T05:02:43;18.40;99.90
25046;DHT22;13044;49.304;12.840;2022-08-01T05:05:10;18.40;99.90
25046;DHT22;13044;49.304;12.840;2022-08-01T05:07:39;18.40;99.90
25046;DHT22;13044;49.304;12.840;2022-08-01T05:10:11;18.40;99.90
25046;DHT22;13044;49.304;12.840;2022-08-01T05:12:38;18.40;99.90
25046;DHT22;13044;49.304;12.840;2022-08-01T05:15:06;18.40;99.90
25046;DHT22;13044;49.304;12.840;2022-08-01T05:17:40;18.40;99.90
25046;DHT22;13044;49.304;12.840;2022-08-01T05:20:09;18.50;99.90
25046;DHT22;13044;49.304;12.840;2022-08-01T05:22:38;18.80;99.90
25046;DHT22;13044;49.304;12.840;2022-08-01T05:25:05;19.40;99.90
25046;DHT22;13044;49.304;12.840;2022-08-01T05:27:33;20.30;99.90
25046;DHT22;13044;49.304;12.840;2022-08-01T05:30:07;21.10;99.90
25046;DHT22;13044;49.304;12.840;2022-08-01T05:32:35;21.70;99.90
25046;DHT22;13044;49.304;12.840;2022-08-01T05:35:03;21.80;99.90
25046;DHT22;13044;49.304;12.840;2022-08-01T05:37:30;21.50;99.90
25046;DHT22;13044;49.304;12.840;2022-08-01T05:39:57;21.10;99.90
25046;DHT22;13044;49.304;12.840;2022-08-01T05:42:24;20.60;99.90
25046;DHT22;13044;49.304;12.840;2022-08-01T05:44:51;20.30;99.90
25046;DHT22;13044;49.304;12.840;2022-08-01T05:47:18;20.10;99.90
25046;DHT22;13044;49.304;12.840;2022-08-01T05:49:45;20.00;99.90
25046;DHT22;13044;49.304;12.840;2022-08-01T05:52:13;19.90;99.90
25046;DHT22;13044;49.304;12.840;2022-08-01T05:54:40;19.80;99.90
25046;DHT22;13044;49.304;12.840;2022-08-01T05:57:07;19.70;99.90
25046;DHT22;13044;49.304;12.840;2022-08-01T05:59:36;19.60;99.90
25046;DHT22;13044;49.304;12.840;2022-08-01T06:02:03;19.50;99.90
25046;DHT22;13044;49.304;12.840;2022-08-01T06:04:31;19.50;99.90
25046;DHT22;13044;49.304;12.840;2022-08-01T06:06:57;19.40;99.90
25046;DHT22;13044;49.304;12.840;2022-08-01T06:09:24;19.50;99.90
25046;DHT22;13044;49.304;12.840;2022-08-01T06:11:51;19.50;99.90
25046;DHT22;13044;49.304;12.840;2022-08-01T06:14:18;19.50;99.90
25046;DHT22;13044;49.304;12.840;2022-08-01T06:16:45;19.40;99.90
25046;DHT22;13044;49.304;12.840;2022-08-01T06:19:12;19.40;99.90
25046;DHT22;13044;49.304;12.840;2022-08-01T06:21:39;19.40;99.90
25046;DHT22;13044;49.304;12.840;2022-08-01T06:24:06;19.40;99.90
25046;DHT22;13044;49.304;12.840;2022-08-01T06:26:33;19.40;99.90
25046;DHT22;13044;49.304;12.840;2022-08-01T06:29:00;19.50;99.90
25046;DHT22;13044;49.304;12.840;2022-08-01T06:31:27;19.60;99.90
25046;DHT22;13044;49.304;12.840;2022-08-01T06:33:59;19.70;99.90
25046;DHT22;13044;49.304;12.840;2022-08-01T06:36:26;19.90;99.90
25046;DHT22;13044;49.304;12.840;2022-08-01T06:38:53;20.10;99.90
25046;DHT22;13044;49.304;12.840;2022-08-01T06:41:20;20.10;99.90
25046;DHT22;13044;49.304;12.840;2022-08-01T06:43:47;20.20;99.90
25046;DHT22;13044;49.304;12.840;2022-08-01T06:46:14;20.20;99.90
25046;DHT22;13044;49.304;12.840;2022-08-01T06:48:41;20.20;99.90
25046;DHT22;13044;49.304;12.840;2022-08-01T06:51:09;20.20;99.90
25046;DHT22;13044;49.304;12.840;2022-08-01T06:53:37;20.20;99.90
25046;DHT22;13044;49.304;12.840;2022-08-01T06:56:04;20.30;99.90
25046;DHT22;13044;49.304;12.840;2022-08-01T06:58:32;20.50;99.90
25046;DHT22;13044;49.304;12.840;2022-08-01T07:01:02;20.70;99.90
25046;DHT22;13044;49.304;12.840;2022-08-01T07:03:35;20.90;99.90
25046;DHT22;13044;49.304;12.840;2022-08-01T07:06:20;21.10;99.90
25046;DHT22;13044;49.304;12.840;2022-08-01T07:08:48;21.30;99.90
25046;DHT22;13044;49.304;12.840;2022-08-01T07:11:15;21.40;99.90
25046;DHT22;13044;49.304;12.840;2022-08-01T07:13:41;21.40;99.90
25046;DHT22;13044;49.304;12.840;2022-08-01T07:16:12;21.50;99.90
25046;DHT22;13044;49.304;12.840;2022-08-01T07:18:39;21.60;99.90
25046;DHT22;13044;49.304;12.840;2022-08-01T07:21:07;21.60;99.90
25046;DHT22;13044;49.304;12.840;2022-08-01T07:23:54;21.70;99.90
25046;DHT22;13044;49.304;12.840;2022-08-01T07:26:22;21.60;99.90
25046;DHT22;13044;49.304;12.840;2022-08-01T07:28:49;21.60;99.90
25046;DHT22;13044;49.304;12.840;2022-08-01T07:31:15;21.70;99.90
25046;DHT22;13044;49.304;12.840;2022-08-01T07:33:42;21.80;99.90
25046;DHT22;13044;49.304;12.840;2022-08-01T07:36:15;21.90;99.90
25046;DHT22;13044;49.304;12.840;2022-08-01T07:38:44;22.00;99.90
25046;DHT22;13044;49.304;12.840;2022-08-01T07:41:11;22.00;99.90
25046;DHT22;13044;49.304;12.840;2022-08-01T07:43:38;22.10;99.90
25046;DHT22;13044;49.304;12.840;2022-08-01T07:46:05;22.10;99.90
25046;DHT22;13044;49.304;12.840;2022-08-01T07:48:33;22.20;99.90
25046;DHT22;13044;49.304;12.840;2022-08-01T07:51:00;22.20;99.90
25046;DHT22;13044;49.304;12.840;2022-08-01T07:53:27;22.30;99.90
25046;DHT22;13044;49.304;12.840;2022-08-01T07:55:54;22.30;99.90
25046;DHT22;13044;49.304;12.840;2022-08-01T07:58:20;22.30;99.90
25046;DHT22;13044;49.304;12.840;2022-08-01T08:00:47;22.30;99.90
25046;DHT22;13044;49.304;12.840;2022-08-01T08:03:14;22.50;99.90
25046;DHT22;13044;49.304;12.840;2022-08-01T08:05:41;22.60;99.90
25046;DHT22;13044;49.304;12.840;2022-08-01T08:08:26;22.60;99.90
25046;DHT22;13044;49.304;12.840;2022-08-01T08:10:53;22.60;99.90
25046;DHT22;13044;49.304;12.840;2022-08-01T08:13:20;22.60;99.90
25046;DHT22;13044;49.304;12.840;2022-08-01T08:15:47;22.80;99.90
25046;DHT22;13044;49.304;12.840;2022-08-01T08:18:15;22.90;99.90
25046;DHT22;13044;49.304;12.840;2022-08-01T08:20:42;23.00;99.90
25046;DHT22;13044;49.304;12.840;2022-08-01T08:23:10;23.20;99.90
25046;DHT22;13044;49.304;12.840;2022-08-01T08:26:09;23.20;99.90
25046;DHT22;13044;49.304;12.840;2022-08-01T08:28:36;23.20;99.90
25046;DHT22;13044;49.304;12.840;2022-08-01T08:31:05;23.10;99.90
25046;DHT22;13044;49.304;12.840;2022-08-01T08:33:32;23.20;99.90
25046;DHT22;13044;49.304;12.840;2022-08-01T08:35:59;23.40;99.90
25046;DHT22;13044;49.304;12.840;2022-08-01T08:38:26;23.50;99.90
25046;DHT22;13044;49.304;12.840;2022-08-01T08:40:56;23.70;99.90
25046;DHT22;13044;49.304;12.840;2022-08-01T08:43:25;23.90;99.90
25046;DHT22;13044;49.304;12.840;2022-08-01T08:45:52;24.00;99.90
25046;DHT22;13044;49.304;12.840;2022-08-01T08:48:26;24.20;99.90
25046;DHT22;13044;49.304;12.840;2022-08-01T08:50:55;24.20;99.90
25046;DHT22;13044;49.304;12.840;2022-08-01T08:53:22;24.20;99.90
25046;DHT22;13044;49.304;12.840;2022-08-01T08:56:00;24.20;99.90
25046;DHT22;13044;49.304;12.840;2022-08-01T08:58:28;24.30;99.90
25046;DHT22;13044;49.304;12.840;2022-08-01T09:00:57;24.30;99.90
25046;DHT22;13044;49.304;12.840;2022-08-01T09:03:25;24.30;99.90
25046;DHT22;13044;49.304;12.840;2022-08-01T09:05:52;24.30;99.90
25046;DHT22;13044;49.304;12.840;2022-08-01T09:08:19;24.30;99.90
25046;DHT22;13044;49.304;12.840;2022-08-01T09:10:46;24.40;99.90
25046;DHT22;13044;49.304;12.840;2022-08-01T09:13:14;24.50;99.90
25046;DHT22;13044;49.304;12.840;2022-08-01T09:15:44;24.40;99.90
25046;DHT22;13044;49.304;12.840;2022-08-01T09:21:15;24.60;99.90
25046;DHT22;13044;49.304;12.840;2022-08-01T09:23:47;24.60;99.90
25046;DHT22;13044;49.304;12.840;2022-08-01T09:26:32;24.60;99.90
25046;DHT22;13044;49.304;12.840;2022-08-01T09:29:06;24.60;99.90
25046;DHT22;13044;49.304;12.840;2022-08-01T09:31:40;24.80;99.90
25046;DHT22;13044;49.304;12.840;2022-08-01T09:34:14;24.90;99.90
25046;DHT22;13044;49.304;12.840;2022-08-01T09:36:51;25.00;99.90
25046;DHT22;13044;49.304;12.840;2022-08-01T09:39:25;25.10;99.90
25046;DHT22;13044;49.304;12.840;2022-08-01T09:41:55;25.10;99.90
25046;DHT22;13044;49.304;12.840;2022-08-01T09:44:40;25.00;99.90
25046;DHT22;13044;49.304;12.840;2022-08-01T09:47:12;25.00;99.90
25046;DHT22;13044;49.304;12.840;2022-08-01T09:49:41;25.00;99.90
25046;DHT22;13044;49.304;12.840;2022-08-01T09:52:20;24.90;99.90
25046;DHT22;13044;49.304;12.840;2022-08-01T09:54:57;24.80;99.90
25046;DHT22;13044;49.304;12.840;2022-08-01T09:57:29;24.70;99.90
25046;DHT22;13044;49.304;12.840;2022-08-01T09:59:58;24.70;99.90
25046;DHT22;13044;49.304;12.840;2022-08-01T10:05:07;24.90;99.90
25046;DHT22;13044;49.304;12.840;2022-08-01T10:07:54;25.00;99.90
25046;DHT22;13044;49.304;12.840;2022-08-01T10:10:24;25.30;99.90
25046;DHT22;13044;49.304;12.840;2022-08-01T10:12:59;25.60;99.90
25046;DHT22;13044;49.304;12.840;2022-08-01T10:15:28;25.70;99.50
25046;DHT22;13044;49.304;12.840;2022-08-01T10:18:05;25.90;99.90
25046;DHT22;13044;49.304;12.840;2022-08-01T10:20:53;26.00;99.20
25046;DHT22;13044;49.304;12.840;2022-08-01T10:23:25;25.90;98.40
25046;DHT22;13044;49.304;12.840;2022-08-01T10:26:07;25.80;98.00
25046;DHT22;13044;49.304;12.840;2022-08-01T10:28:36;25.50;98.00
25046;DHT22;13044;49.304;12.840;2022-08-01T10:31:07;25.30;98.40
25046;DHT22;13044;49.304;12.840;2022-08-01T10:33:40;25.40;98.60
25046;DHT22;13044;49.304;12.840;2022-08-01T10:36:22;25.70;97.80
25046;DHT22;13044;49.304;12.840;2022-08-01T10:38:52;25.80;96.20
25046;DHT22;13044;49.304;12.840;2022-08-01T10:41:21;25.60;97.20
25046;DHT22;13044;49.304;12.840;2022-08-01T10:43:48;25.60;97.40
25046;DHT22;13044;49.304;12.840;2022-08-01T10:46:16;25.50;97.80
25046;DHT22;13044;49.304;12.840;2022-08-01T10:51:40;25.10;97.10
25046;DHT22;13044;49.304;12.840;2022-08-01T10:54:24;25.00;97.10
25046;DHT22;13044;49.304;12.840;2022-08-01T10:56:52;24.80;98.30
25046;DHT22;13044;49.304;12.840;2022-08-01T10:59:29;24.90;97.90
25046;DHT22;13044;49.304;12.840;2022-08-01T11:02:34;25.00;98.50
25046;DHT22;13044;49.304;12.840;2022-08-01T11:05:19;25.00;97.60
25046;DHT22;13044;49.304;12.840;2022-08-01T11:07:52;25.10;97.40
25046;DHT22;13044;49.304;12.840;2022-08-01T11:10:22;25.20;98.30
25046;DHT22;13044;49.304;12.840;2022-08-01T11:12:54;25.30;98.50
25046;DHT22;13044;49.304;12.840;2022-08-01T11:15:23;25.50;97.20
25046;DHT22;13044;49.304;12.840;2022-08-01T11:17:56;25.60;97.20
25046;DHT22;13044;49.304;12.840;2022-08-01T11:20:28;25.70;96.90
25046;DHT22;13044;49.304;12.840;2022-08-01T11:28:25;26.10;95.60
25046;DHT22;13044;49.304;12.840;2022-08-01T11:38:41;26.00;94.30
25046;DHT22;13044;49.304;12.840;2022-08-01T11:41:14;25.90;94.10
25046;DHT22;13044;49.304;12.840;2022-08-01T11:45:08;25.80;93.70
25046;DHT22;13044;49.304;12.840;2022-08-01T11:47:17;25.90;93.40
25046;DHT22;13044;49.304;12.840;2022-08-01T11:49:48;25.90;94.10
25046;DHT22;13044;49.304;12.840;2022-08-01T11:52:27;26.00;94.50
25046;DHT22;13044;49.304;12.840;2022-08-01T11:54:57;26.10;95.00
25046;DHT22;13044;49.304;12.840;2022-08-01T11:57:31;26.30;95.10
25046;DHT22;13044;49.304;12.840;2022-08-01T12:00:13;26.30;93.60
25046;DHT22;13044;49.304;12.840;2022-08-01T12:02:45;26.40;94.40
25046;DHT22;13044;49.304;12.840;2022-08-01T12:05:17;26.50;93.90
25046;DHT22;13044;49.304;12.840;2022-08-01T12:07:51;26.60;92.50
25046;DHT22;13044;49.304;12.840;2022-08-01T12:10:20;26.80;93.80
25046;DHT22;13044;49.304;12.840;2022-08-01T12:12:54;27.00;93.80
25046;DHT22;13044;49.304;12.840;2022-08-01T12:15:33;27.20;93.70
25046;DHT22;13044;49.304;12.840;2022-08-01T12:18:05;27.40;93.40
25046;DHT22;13044;49.304;12.840;2022-08-01T12:20:34;27.60;92.00
25046;DHT22;13044;49.304;12.840;2022-08-01T12:23:08;27.60;90.80
25046;DHT22;13044;49.304;12.840;2022-08-01T12:25:40;27.50;91.10
25046;DHT22;13044;49.304;12.840;2022-08-01T12:28:08;27.60;90.80
25046;DHT22;13044;49.304;12.840;2022-08-01T12:30:37;27.60;90.80
25046;DHT22;13044;49.304;12.840;2022-08-01T12:33:06;27.50;89.00
25046;DHT22;13044;49.304;12.840;2022-08-01T12:35:36;27.50;90.10
25046;DHT22;13044;49.304;12.840;2022-08-01T12:38:14;27.30;90.60
25046;DHT22;13044;49.304;12.840;2022-08-01T12:40:44;27.20;90.60
25046;DHT22;13044;49.304;12.840;2022-08-01T12:43:20;27.00;90.40
25046;DHT22;13044;49.304;12.840;2022-08-01T12:45:56;27.00;90.30
25046;DHT22;13044;49.304;12.840;2022-08-01T12:48:25;27.00;90.80
25046;DHT22;13044;49.304;12.840;2022-08-01T12:50:53;27.10;91.30
25046;DHT22;13044;49.304;12.840;2022-08-01T12:53:22;27.00;90.50
25046;DHT22;13044;49.304;12.840;2022-08-01T12:55:52;27.00;91.90
25046;DHT22;13044;49.304;12.840;2022-08-01T12:58:30;27.00;90.40
25046;DHT22;13044;49.304;12.840;2022-08-01T13:01:04;26.80;90.80
25046;DHT22;13044;49.304;12.840;2022-08-01T13:03:33;26.80;90.40
25046;DHT22;13044;49.304;12.840;2022-08-01T13:06:00;26.90;90.80
25046;DHT22;13044;49.304;12.840;2022-08-01T13:08:32;27.10;90.20
25046;DHT22;13044;49.304;12.840;2022-08-01T13:11:03;27.50;91.50
25046;DHT22;13044;49.304;12.840;2022-08-01T13:13:39;27.80;89.40
25046;DHT22;13044;49.304;12.840;2022-08-01T13:16:18;28.10;87.10
25046;DHT22;13044;49.304;12.840;2022-08-01T13:19:07;28.30;87.30
25046;DHT22;13044;49.304;12.840;2022-08-01T13:21:34;28.50;85.10
25046;DHT22;13044;49.304;12.840;2022-08-01T13:24:27;28.70;82.10
25046;DHT22;13044;49.304;12.840;2022-08-01T13:27:06;28.70;79.70
25046;DHT22;13044;49.304;12.840;2022-08-01T13:29:35;28.60;83.50
25046;DHT22;13044;49.304;12.840;2022-08-01T13:32:20;28.40;81.50
25046;DHT22;13044;49.304;12.840;2022-08-01T13:37:30;28.10;83.00
25046;DHT22;13044;49.304;12.840;2022-08-01T13:39:58;28.20;81.00
25046;DHT22;13044;49.304;12.840;2022-08-01T13:42:25;28.20;81.90
25046;DHT22;13044;49.304;12.840;2022-08-01T13:44:52;28.30;81.80
25046;DHT22;13044;49.304;12.840;2022-08-01T13:47:19;28.40;81.40
25046;DHT22;13044;49.304;12.840;2022-08-01T13:49:58;28.60;81.40
25046;DHT22;13044;49.304;12.840;2022-08-01T13:52:29;28.90;80.40
25046;DHT22;13044;49.304;12.840;2022-08-01T13:54:56;28.90;80.30
25046;DHT22;13044;49.304;12.840;2022-08-01T13:57:23;28.90;81.10
25046;DHT22;13044;49.304;12.840;2022-08-01T13:59:50;29.00;76.60
25046;DHT22;13044;49.304;12.840;2022-08-01T14:02:19;28.90;77.00
25046;DHT22;13044;49.304;12.840;2022-08-01T14:04:46;28.80;79.40
25046;DHT22;13044;49.304;12.840;2022-08-01T14:07:13;28.60;80.00
25046;DHT22;13044;49.304;12.840;2022-08-01T14:09:41;28.50;78.90
25046;DHT22;13044;49.304;12.840;2022-08-01T14:12:10;28.60;77.50
25046;DHT22;13044;49.304;12.840;2022-08-01T14:14:37;28.50;77.50
25046;DHT22;13044;49.304;12.840;2022-08-01T14:17:04;28.50;79.70
25046;DHT22;13044;49.304;12.840;2022-08-01T14:19:32;28.40;79.80
25046;DHT22;13044;49.304;12.840;2022-08-01T14:22:05;28.40;81.50
25046;DHT22;13044;49.304;12.840;2022-08-01T14:24:32;28.40;82.20
25046;DHT22;13044;49.304;12.840;2022-08-01T14:26:59;28.40;81.30
25046;DHT22;13044;49.304;12.840;2022-08-01T14:29:26;28.20;80.20
25046;DHT22;13044;49.304;12.840;2022-08-01T14:32:13;28.00;82.50
25046;DHT22;13044;49.304;12.840;2022-08-01T14:34:40;27.90;82.10
25046;DHT22;13044;49.304;12.840;2022-08-01T14:37:07;27.70;82.60
25046;DHT22;13044;49.304;12.840;2022-08-01T14:39:35;27.60;80.70
25046;DHT22;13044;49.304;12.840;2022-08-01T14:42:03;27.40;82.00
25046;DHT22;13044;49.304;12.840;2022-08-01T14:44:32;27.20;83.20
25046;DHT22;13044;49.304;12.840;2022-08-01T14:47:01;27.10;83.60
25046;DHT22;13044;49.304;12.840;2022-08-01T14:49:41;27.10;84.30
25046;DHT22;13044;49.304;12.840;2022-08-01T14:52:11;27.10;83.70
25046;DHT22;13044;49.304;12.840;2022-08-01T14:54:38;27.10;83.70
25046;DHT22;13044;49.304;12.840;2022-08-01T14:57:05;27.10;84.30
25046;DHT22;13044;49.304;12.840;2022-08-01T14:59:32;27.20;84.30
25046;DHT22;13044;49.304;12.840;2022-08-01T15:01:59;27.40;83.70
25046;DHT22;13044;49.304;12.840;2022-08-01T15:04:26;27.50;84.60
25046;DHT22;13044;49.304;12.840;2022-08-01T15:06:52;27.80;84.70
25046;DHT22;13044;49.304;12.840;2022-08-01T15:09:20;27.90;85.30
25046;DHT22;13044;49.304;12.840;2022-08-01T15:11:47;28.20;83.20
25046;DHT22;13044;49.304;12.840;2022-08-01T15:14:14;28.20;84.10
25046;DHT22;13044;49.304;12.840;2022-08-01T15:16:59;28.00;84.20
25046;DHT22;13044;49.304;12.840;2022-08-01T15:19:26;28.00;84.30
25046;DHT22;13044;49.304;12.840;2022-08-01T15:21:53;27.90;88.00
25046;DHT22;13044;49.304;12.840;2022-08-01T15:24:20;27.90;82.80
25046;DHT22;13044;49.304;12.840;2022-08-01T15:26:46;27.90;81.90
25046;DHT22;13044;49.304;12.840;2022-08-01T15:29:15;27.80;82.90
25046;DHT22;13044;49.304;12.840;2022-08-01T15:31:42;27.80;82.50
25046;DHT22;13044;49.304;12.840;2022-08-01T15:34:08;27.80;83.80
25046;DHT22;13044;49.304;12.840;2022-08-01T15:36:36;27.90;83.50
25046;DHT22;13044;49.304;12.840;2022-08-01T15:39:07;28.00;82.50
25046;DHT22;13044;49.304;12.840;2022-08-01T15:41:35;28.10;83.60
25046;DHT22;13044;49.304;12.840;2022-08-01T15:44:02;28.20;85.00
25046;DHT22;13044;49.304;12.840;2022-08-01T15:46:29;28.40;82.00
25046;DHT22;13044;49.304;12.840;2022-08-01T15:48:57;28.40;83.40
25046;DHT22;13044;49.304;12.840;2022-08-01T15:51:24;28.40;83.60
25046;DHT22;13044;49.304;12.840;2022-08-01T15:53:50;28.40;81.60
25046;DHT22;13044;49.304;12.840;2022-08-01T15:56:17;28.40;86.20
25046;DHT22;13044;49.304;12.840;2022-08-01T15:58:44;28.40;84.10
25046;DHT22;13044;49.304;12.840;2022-08-01T16:01:11;28.40;83.90
25046;DHT22;13044;49.304;12.840;2022-08-01T16:03:38;28.30;86.00
25046;DHT22;13044;49.304;12.840;2022-08-01T16:06:05;28.40;84.70